Hovedside
METAR-TAF:

METAR-TAF

Lufthavner :

Örnsköldsvik lufthavn

Örnsköldsvik, Sverige

breddegrad: 63-24N, lengdegrad: 018-58E, høyde over havet: 103 m

Gjeldene værobservasjon

Denne rapporten ble laget for 37 minutter siden, klokken 03:50 UTC
Vind 10 kt fra Nord-nordøst, skiftende mellom Nord og Øst
Temperatur -4°C
Luftfuktighet 100%
Trykk 997 hPa
Sikt 10 km eller mer
kornsnø

METAR: ESNO 290350Z AUTO 03010KT 360V080 9999 SG FEW005/// OVC007/// M04/M04 Q0997 RESG

Tid: 05:27 (04:27 UTC)

Varsel

Denne rapporten ble laget for 7 timer og 4 minutter siden, klokken 21:23 UTC
Varsel gyldig fra 28. klokken 21 UTC til 28. klokken 23 UTC
Vind 6 kt fra Nordøst
Sikt 10 km eller mer
Overskyet i en høyde av 600 ft
lett snø
Sannsynlighet 40%
fra 28. klokken 21 UTC til 28. klokken 23 UTC
Sikt: 2000 m
Overskyet i en høyde av 300 ft
snø

TAF: ESNO 282123Z 2821/2823 04006KT 9999 -SN OVC006 PROB40 2821/2823 2000 SN OVC003

Værobservasjoner og værvarsel for over 4000 flyplasser (METAR- og TAF-rapporter).

Tilgjengelige stasjoner er representert av de røde og gule prikkene på kartet.

Hold musepekeren over prikken for å se navnet på stasjonen.

Klikk så for å se værobservasjoner og -varsler.

For å forandre kartet kan du klikke på den grønne knappen med svart kryss for å zoome inn, på den grønne knappen med strek for å zoome ut, eller på de grønne pilene for å se tilstøtende kart.


METAR-TAF: